sensor_id;sensor_type;location;lat;lon;timestamp;pressure;altitude;pressure_sealevel;temperature;humidity
30598;BME280;17365;48.878;8.334;2023-07-13T00:01:49;100078.94;;;20.54;59.65
30598;BME280;17365;48.878;8.334;2023-07-13T00:04:19;100071.69;;;20.14;61.37
30598;BME280;17365;48.878;8.334;2023-07-13T00:06:45;100080.03;;;20.25;60.84
30598;BME280;17365;48.878;8.334;2023-07-13T00:09:13;100076.75;;;20.20;61.08
30598;BME280;17365;48.878;8.334;2023-07-13T00:11:39;100080.59;;;20.33;59.47
30598;BME280;17365;48.878;8.334;2023-07-13T00:14:05;100080.34;;;20.17;60.19
30598;BME280;17365;48.878;8.334;2023-07-13T00:16:30;100083.25;;;20.33;59.75
30598;BME280;17365;48.878;8.334;2023-07-13T00:18:56;100078.78;;;20.12;59.52
30598;BME280;17365;48.878;8.334;2023-07-13T00:21:21;100071.81;;;20.11;60.18
30598;BME280;17365;48.878;8.334;2023-07-13T00:23:46;100082.16;;;20.15;59.91
30598;BME280;17365;48.878;8.334;2023-07-13T00:26:11;100081.78;;;20.02;61.61
30598;BME280;17365;48.878;8.334;2023-07-13T00:28:37;100082.22;;;20.14;61.11
30598;BME280;17365;48.878;8.334;2023-07-13T00:31:03;100081.28;;;20.16;61.01
30598;BME280;17365;48.878;8.334;2023-07-13T00:33:28;100080.03;;;20.25;61.20
30598;BME280;17365;48.878;8.334;2023-07-13T00:35:54;100080.91;;;20.25;61.13
30598;BME280;17365;48.878;8.334;2023-07-13T00:38:20;100081.50;;;19.87;62.69
30598;BME280;17365;48.878;8.334;2023-07-13T00:40:45;100075.88;;;19.72;64.14
30598;BME280;17365;48.878;8.334;2023-07-13T00:43:12;100082.94;;;19.45;65.04
30598;BME280;17365;48.878;8.334;2023-07-13T00:48:19;100084.66;;;19.22;66.41
30598;BME280;17365;48.878;8.334;2023-07-13T00:50:46;100081.97;;;19.23;66.90
30598;BME280;17365;48.878;8.334;2023-07-13T00:53:11;100076.88;;;19.43;65.36
30598;BME280;17365;48.878;8.334;2023-07-13T00:55:38;100083.28;;;19.10;67.33
30598;BME280;17365;48.878;8.334;2023-07-13T00:58:04;100087.38;;;19.18;66.71
30598;BME280;17365;48.878;8.334;2023-07-13T01:00:31;100081.50;;;19.10;67.32
30598;BME280;17365;48.878;8.334;2023-07-13T01:02:57;100082.16;;;18.90;68.47
30598;BME280;17365;48.878;8.334;2023-07-13T01:05:22;100076.47;;;19.04;67.87
30598;BME280;17365;48.878;8.334;2023-07-13T01:07:48;100074.25;;;19.18;66.71
30598;BME280;17365;48.878;8.334;2023-07-13T01:10:15;100068.38;;;18.84;68.76
30598;BME280;17365;48.878;8.334;2023-07-13T01:12:40;100066.09;;;18.73;69.19
30598;BME280;17365;48.878;8.334;2023-07-13T01:15:06;100071.91;;;18.55;70.84
30598;BME280;17365;48.878;8.334;2023-07-13T01:17:51;100069.81;;;18.38;71.51
30598;BME280;17365;48.878;8.334;2023-07-13T01:20:16;100075.28;;;18.30;71.96
30598;BME280;17365;48.878;8.334;2023-07-13T01:22:42;100072.53;;;18.63;70.26
30598;BME280;17365;48.878;8.334;2023-07-13T01:25:07;100072.47;;;18.66;70.53
30598;BME280;17365;48.878;8.334;2023-07-13T01:27:33;100075.59;;;18.49;71.19
30598;BME280;17365;48.878;8.334;2023-07-13T01:29:59;100074.78;;;18.47;70.43
30598;BME280;17365;48.878;8.334;2023-07-13T01:32:28;100066.66;;;18.27;71.84
30598;BME280;17365;48.878;8.334;2023-07-13T01:34:53;100068.16;;;18.34;71.47
30598;BME280;17365;48.878;8.334;2023-07-13T01:37:19;100074.72;;;18.21;72.50
30598;BME280;17365;48.878;8.334;2023-07-13T01:39:44;100076.78;;;18.39;70.89
30598;BME280;17365;48.878;8.334;2023-07-13T01:42:10;100079.78;;;17.97;73.06
30598;BME280;17365;48.878;8.334;2023-07-13T01:44:35;100070.09;;;17.99;72.79
30598;BME280;17365;48.878;8.334;2023-07-13T01:47:00;100071.81;;;18.00;72.27
30598;BME280;17365;48.878;8.334;2023-07-13T01:49:25;100072.00;;;18.24;71.44
30598;BME280;17365;48.878;8.334;2023-07-13T01:51:50;100066.25;;;18.11;72.09
30598;BME280;17365;48.878;8.334;2023-07-13T01:54:16;100078.72;;;18.04;72.54
30598;BME280;17365;48.878;8.334;2023-07-13T01:56:41;100081.69;;;17.92;72.54
30598;BME280;17365;48.878;8.334;2023-07-13T01:59:07;100084.78;;;17.75;73.50
30598;BME280;17365;48.878;8.334;2023-07-13T02:01:32;100076.44;;;17.92;73.10
30598;BME280;17365;48.878;8.334;2023-07-13T02:03:57;100075.03;;;18.10;71.53
30598;BME280;17365;48.878;8.334;2023-07-13T02:06:22;100073.09;;;18.17;71.30
30598;BME280;17365;48.878;8.334;2023-07-13T02:08:48;100069.13;;;18.31;70.55
30598;BME280;17365;48.878;8.334;2023-07-13T02:11:13;100075.06;;;18.09;71.39
30598;BME280;17365;48.878;8.334;2023-07-13T02:13:38;100064.56;;;18.09;71.51
30598;BME280;17365;48.878;8.334;2023-07-13T02:16:03;100071.00;;;17.98;71.72
30598;BME280;17365;48.878;8.334;2023-07-13T02:18:28;100068.84;;;18.13;71.34
30598;BME280;17365;48.878;8.334;2023-07-13T02:20:54;100079.38;;;17.82;72.87
30598;BME280;17365;48.878;8.334;2023-07-13T02:23:19;100066.25;;;17.82;72.51
30598;BME280;17365;48.878;8.334;2023-07-13T02:25:44;100062.53;;;17.89;72.72
30598;BME280;17365;48.878;8.334;2023-07-13T02:28:10;100060.44;;;18.00;71.82
30598;BME280;17365;48.878;8.334;2023-07-13T02:30:35;100066.53;;;18.02;71.27
30598;BME280;17365;48.878;8.334;2023-07-13T02:33:00;100074.03;;;17.85;72.53
30598;BME280;17365;48.878;8.334;2023-07-13T02:35:25;100077.03;;;17.71;72.90
30598;BME280;17365;48.878;8.334;2023-07-13T02:37:50;100070.09;;;17.99;71.85
30598;BME280;17365;48.878;8.334;2023-07-13T02:40:16;100078.63;;;17.77;72.88
30598;BME280;17365;48.878;8.334;2023-07-13T02:42:41;100074.41;;;17.71;73.06
30598;BME280;17365;48.878;8.334;2023-07-13T02:45:07;100074.13;;;17.82;72.76
30598;BME280;17365;48.878;8.334;2023-07-13T02:47:33;100075.28;;;17.71;73.36
30598;BME280;17365;48.878;8.334;2023-07-13T02:49:58;100077.41;;;17.57;74.65
30598;BME280;17365;48.878;8.334;2023-07-13T02:52:24;100075.94;;;17.80;72.92
30598;BME280;17365;48.878;8.334;2023-07-13T02:54:49;100072.88;;;17.62;73.38
30598;BME280;17365;48.878;8.334;2023-07-13T02:57:14;100066.63;;;17.68;73.08
30598;BME280;17365;48.878;8.334;2023-07-13T02:59:40;100075.59;;;17.92;71.78
30598;BME280;17365;48.878;8.334;2023-07-13T03:02:05;100065.88;;;17.63;72.73
30598;BME280;17365;48.878;8.334;2023-07-13T03:04:30;100074.16;;;17.48;73.31
30598;BME280;17365;48.878;8.334;2023-07-13T03:06:55;100078.84;;;17.36;73.45
30598;BME280;17365;48.878;8.334;2023-07-13T03:09:24;100081.78;;;17.57;72.61
30598;BME280;17365;48.878;8.334;2023-07-13T03:11:52;100084.56;;;17.51;71.96
30598;BME280;17365;48.878;8.334;2023-07-13T03:14:17;100094.75;;;17.29;72.75
30598;BME280;17365;48.878;8.334;2023-07-13T03:16:42;100085.50;;;17.48;72.29
30598;BME280;17365;48.878;8.334;2023-07-13T03:19:07;100088.81;;;17.56;71.89
30598;BME280;17365;48.878;8.334;2023-07-13T03:21:32;100098.56;;;17.17;72.84
30598;BME280;17365;48.878;8.334;2023-07-13T03:23:58;100102.16;;;17.13;74.16
30598;BME280;17365;48.878;8.334;2023-07-13T03:26:23;100102.53;;;17.33;73.04
30598;BME280;17365;48.878;8.334;2023-07-13T03:28:48;100091.47;;;17.53;71.78
30598;BME280;17365;48.878;8.334;2023-07-13T03:31:18;100096.34;;;17.36;72.35
30598;BME280;17365;48.878;8.334;2023-07-13T03:33:43;100106.69;;;17.40;71.75
30598;BME280;17365;48.878;8.334;2023-07-13T03:36:10;100104.88;;;17.42;71.27
30598;BME280;17365;48.878;8.334;2023-07-13T03:38:35;100109.84;;;17.53;70.76
30598;BME280;17365;48.878;8.334;2023-07-13T03:41:01;100110.22;;;17.39;71.31
30598;BME280;17365;48.878;8.334;2023-07-13T03:43:26;100107.88;;;17.61;70.97
30598;BME280;17365;48.878;8.334;2023-07-13T03:45:51;100108.94;;;17.56;71.13
30598;BME280;17365;48.878;8.334;2023-07-13T03:48:17;100112.69;;;17.44;72.03
30598;BME280;17365;48.878;8.334;2023-07-13T03:50:42;100111.66;;;17.51;71.57
30598;BME280;17365;48.878;8.334;2023-07-13T03:53:08;100112.44;;;17.22;72.23
30598;BME280;17365;48.878;8.334;2023-07-13T03:55:33;100114.78;;;17.33;71.71
30598;BME280;17365;48.878;8.334;2023-07-13T03:57:59;100115.84;;;17.58;71.19
30598;BME280;17365;48.878;8.334;2023-07-13T04:00:25;100113.22;;;17.58;71.30
30598;BME280;17365;48.878;8.334;2023-07-13T04:02:50;100121.03;;;17.60;70.80
30598;BME280;17365;48.878;8.334;2023-07-13T04:05:16;100116.75;;;17.57;70.61
30598;BME280;17365;48.878;8.334;2023-07-13T04:07:41;100114.91;;;17.61;69.81
30598;BME280;17365;48.878;8.334;2023-07-13T04:10:06;100111.88;;;17.42;71.53
30598;BME280;17365;48.878;8.334;2023-07-13T04:12:32;100119.19;;;17.63;70.79
30598;BME280;17365;48.878;8.334;2023-07-13T04:14:57;100113.13;;;17.94;69.63
30598;BME280;17365;48.878;8.334;2023-07-13T04:17:22;100115.56;;;18.00;68.92
30598;BME280;17365;48.878;8.334;2023-07-13T04:19:47;100124.44;;;17.96;69.42
30598;BME280;17365;48.878;8.334;2023-07-13T04:22:13;100123.75;;;18.20;68.75
30598;BME280;17365;48.878;8.334;2023-07-13T04:24:39;100114.19;;;18.47;67.63
30598;BME280;17365;48.878;8.334;2023-07-13T04:27:04;100119.34;;;18.50;67.50
30598;BME280;17365;48.878;8.334;2023-07-13T04:29:29;100117.09;;;18.38;67.08
30598;BME280;17365;48.878;8.334;2023-07-13T04:31:55;100119.44;;;18.18;67.83
30598;BME280;17365;48.878;8.334;2023-07-13T04:34:20;100117.81;;;18.14;68.11
30598;BME280;17365;48.878;8.334;2023-07-13T04:36:45;100124.53;;;18.24;68.68
30598;BME280;17365;48.878;8.334;2023-07-13T04:39:10;100128.63;;;18.32;68.32
30598;BME280;17365;48.878;8.334;2023-07-13T04:41:36;100128.03;;;17.93;69.86
30598;BME280;17365;48.878;8.334;2023-07-13T04:44:01;100135.13;;;17.90;69.71
30598;BME280;17365;48.878;8.334;2023-07-13T04:46:28;100133.97;;;18.59;67.63
30598;BME280;17365;48.878;8.334;2023-07-13T04:48:53;100135.81;;;19.11;65.58
30598;BME280;17365;48.878;8.334;2023-07-13T04:51:18;100139.66;;;19.01;64.38
30598;BME280;17365;48.878;8.334;2023-07-13T04:53:43;100146.88;;;19.47;62.99
30598;BME280;17365;48.878;8.334;2023-07-13T04:56:09;100141.00;;;19.14;64.20
30598;BME280;17365;48.878;8.334;2023-07-13T04:58:34;100150.63;;;19.67;62.07
30598;BME280;17365;48.878;8.334;2023-07-13T05:01:00;100147.81;;;20.21;61.37
30598;BME280;17365;48.878;8.334;2023-07-13T05:03:26;100146.78;;;20.49;59.27
30598;BME280;17365;48.878;8.334;2023-07-13T05:05:57;100141.09;;;20.59;59.08
30598;BME280;17365;48.878;8.334;2023-07-13T05:08:23;100148.75;;;20.44;59.72
30598;BME280;17365;48.878;8.334;2023-07-13T05:10:48;100146.34;;;19.38;63.83
30598;BME280;17365;48.878;8.334;2023-07-13T05:13:13;100149.94;;;19.62;62.87
30598;BME280;17365;48.878;8.334;2023-07-13T05:15:38;100144.41;;;19.94;61.28
30598;BME280;17365;48.878;8.334;2023-07-13T05:18:04;100146.03;;;19.73;61.23
30598;BME280;17365;48.878;8.334;2023-07-13T05:20:29;100155.53;;;19.26;63.88
30598;BME280;17365;48.878;8.334;2023-07-13T05:22:54;100153.34;;;19.39;62.88
30598;BME280;17365;48.878;8.334;2023-07-13T05:25:19;100161.63;;;19.53;62.13
30598;BME280;17365;48.878;8.334;2023-07-13T05:27:45;100160.19;;;19.69;62.50
30598;BME280;17365;48.878;8.334;2023-07-13T05:30:10;100157.88;;;20.33;59.62
30598;BME280;17365;48.878;8.334;2023-07-13T05:32:36;100162.28;;;21.02;57.80
30598;BME280;17365;48.878;8.334;2023-07-13T05:35:02;100162.78;;;21.33;56.53
30598;BME280;17365;48.878;8.334;2023-07-13T05:37:27;100158.84;;;21.43;56.28
30598;BME280;17365;48.878;8.334;2023-07-13T05:39:52;100158.72;;;21.87;54.24
30598;BME280;17365;48.878;8.334;2023-07-13T05:42:18;100152.97;;;22.56;51.99
30598;BME280;17365;48.878;8.334;2023-07-13T05:44:43;100152.25;;;22.33;52.78
30598;BME280;17365;48.878;8.334;2023-07-13T05:47:08;100152.72;;;22.42;52.60
30598;BME280;17365;48.878;8.334;2023-07-13T05:49:33;100165.72;;;22.27;53.54
30598;BME280;17365;48.878;8.334;2023-07-13T05:51:59;100168.28;;;22.29;54.45
30598;BME280;17365;48.878;8.334;2023-07-13T05:54:24;100167.59;;;23.01;52.67
30598;BME280;17365;48.878;8.334;2023-07-13T05:56:49;100171.97;;;23.02;51.89
30598;BME280;17365;48.878;8.334;2023-07-13T05:59:14;100174.69;;;23.17;52.82
30598;BME280;17365;48.878;8.334;2023-07-13T06:01:40;100178.97;;;23.03;52.77
30598;BME280;17365;48.878;8.334;2023-07-13T06:04:06;100178.19;;;23.01;53.20
30598;BME280;17365;48.878;8.334;2023-07-13T06:06:31;100186.78;;;22.10;56.34
30598;BME280;17365;48.878;8.334;2023-07-13T06:08:56;100188.81;;;22.61;55.16
30598;BME280;17365;48.878;8.334;2023-07-13T06:11:22;100185.31;;;22.61;54.66
30598;BME280;17365;48.878;8.334;2023-07-13T06:13:48;100190.03;;;21.74;56.52
30598;BME280;17365;48.878;8.334;2023-07-13T06:16:13;100195.69;;;21.87;57.97
30598;BME280;17365;48.878;8.334;2023-07-13T06:18:39;100191.06;;;22.13;57.15
30598;BME280;17365;48.878;8.334;2023-07-13T06:21:12;100190.66;;;22.41;56.19
30598;BME280;17365;48.878;8.334;2023-07-13T06:23:38;100199.03;;;22.31;56.45
30598;BME280;17365;48.878;8.334;2023-07-13T06:26:03;100203.56;;;21.46;57.77
30598;BME280;17365;48.878;8.334;2023-07-13T06:28:29;100211.84;;;22.00;57.30
30598;BME280;17365;48.878;8.334;2023-07-13T06:30:55;100205.19;;;22.32;55.45
30598;BME280;17365;48.878;8.334;2023-07-13T06:33:20;100216.13;;;22.02;55.80
30598;BME280;17365;48.878;8.334;2023-07-13T06:35:45;100208.06;;;21.85;55.01
30598;BME280;17365;48.878;8.334;2023-07-13T06:38:10;100203.84;;;22.01;54.97
30598;BME280;17365;48.878;8.334;2023-07-13T06:40:35;100211.91;;;21.78;55.19
30598;BME280;17365;48.878;8.334;2023-07-13T06:43:00;100213.63;;;21.79;55.65
30598;BME280;17365;48.878;8.334;2023-07-13T06:45:26;100215.19;;;21.63;55.84
30598;BME280;17365;48.878;8.334;2023-07-13T06:47:51;100214.31;;;22.25;54.06
30598;BME280;17365;48.878;8.334;2023-07-13T06:50:16;100223.78;;;22.29;53.14
30598;BME280;17365;48.878;8.334;2023-07-13T06:52:41;100233.00;;;22.20;53.46
30598;BME280;17365;48.878;8.334;2023-07-13T06:55:07;100234.25;;;21.91;52.71
30598;BME280;17365;48.878;8.334;2023-07-13T06:57:32;100238.53;;;22.53;51.74
30598;BME280;17365;48.878;8.334;2023-07-13T06:59:57;100243.81;;;22.34;52.06
30598;BME280;17365;48.878;8.334;2023-07-13T07:02:22;100252.38;;;22.21;52.69
30598;BME280;17365;48.878;8.334;2023-07-13T07:04:48;100248.91;;;22.19;52.34
30598;BME280;17365;48.878;8.334;2023-07-13T07:07:13;100247.88;;;22.23;53.21
30598;BME280;17365;48.878;8.334;2023-07-13T07:09:38;100251.22;;;22.47;52.93
30598;BME280;17365;48.878;8.334;2023-07-13T07:12:03;100251.16;;;22.67;52.51
30598;BME280;17365;48.878;8.334;2023-07-13T07:14:29;100252.22;;;22.63;52.65
30598;BME280;17365;48.878;8.334;2023-07-13T07:16:54;100255.72;;;22.45;53.63
30598;BME280;17365;48.878;8.334;2023-07-13T07:19:19;100252.13;;;22.64;53.52
30598;BME280;17365;48.878;8.334;2023-07-13T07:21:45;100243.94;;;23.08;51.88
30598;BME280;17365;48.878;8.334;2023-07-13T07:24:10;100254.22;;;22.58;52.93
30598;BME280;17365;48.878;8.334;2023-07-13T07:26:35;100250.78;;;22.56;53.35
30598;BME280;17365;48.878;8.334;2023-07-13T07:29:00;100257.28;;;22.49;53.33
30598;BME280;17365;48.878;8.334;2023-07-13T07:31:25;100252.84;;;22.49;54.23
30598;BME280;17365;48.878;8.334;2023-07-13T07:33:50;100255.03;;;22.98;52.99
30598;BME280;17365;48.878;8.334;2023-07-13T07:36:16;100253.84;;;23.05;52.55
30598;BME280;17365;48.878;8.334;2023-07-13T07:38:41;100251.19;;;23.23;52.09
30598;BME280;17365;48.878;8.334;2023-07-13T07:41:07;100257.66;;;22.99;51.46
30598;BME280;17365;48.878;8.334;2023-07-13T07:43:32;100260.75;;;23.26;50.77
30598;BME280;17365;48.878;8.334;2023-07-13T07:45:57;100264.13;;;22.92;51.22
30598;BME280;17365;48.878;8.334;2023-07-13T07:48:23;100262.91;;;22.80;52.06
30598;BME280;17365;48.878;8.334;2023-07-13T07:50:48;100265.91;;;23.10;50.32
30598;BME280;17365;48.878;8.334;2023-07-13T07:53:13;100266.03;;;22.70;51.25
30598;BME280;17365;48.878;8.334;2023-07-13T07:55:38;100261.94;;;23.02;51.64
30598;BME280;17365;48.878;8.334;2023-07-13T07:58:04;100261.63;;;23.44;51.24
30598;BME280;17365;48.878;8.334;2023-07-13T08:00:29;100269.03;;;22.81;51.28
30598;BME280;17365;48.878;8.334;2023-07-13T08:02:56;100273.28;;;22.64;51.71
30598;BME280;17365;48.878;8.334;2023-07-13T08:05:22;100262.78;;;23.57;49.67
30598;BME280;17365;48.878;8.334;2023-07-13T08:07:47;100269.38;;;23.48;49.25
30598;BME280;17365;48.878;8.334;2023-07-13T08:10:12;100271.69;;;23.73;49.27
30598;BME280;17365;48.878;8.334;2023-07-13T08:12:38;100273.81;;;23.84;47.67
30598;BME280;17365;48.878;8.334;2023-07-13T08:15:03;100264.50;;;23.75;48.16
30598;BME280;17365;48.878;8.334;2023-07-13T08:17:29;100263.19;;;24.19;47.48
30598;BME280;17365;48.878;8.334;2023-07-13T08:19:54;100263.25;;;24.34;46.85
30598;BME280;17365;48.878;8.334;2023-07-13T08:22:20;100264.81;;;24.21;46.76
30598;BME280;17365;48.878;8.334;2023-07-13T08:24:45;100268.81;;;23.61;45.38
30598;BME280;17365;48.878;8.334;2023-07-13T08:27:11;100268.81;;;24.13;44.45
30598;BME280;17365;48.878;8.334;2023-07-13T08:29:36;100264.22;;;23.81;44.26
30598;BME280;17365;48.878;8.334;2023-07-13T08:32:01;100261.63;;;24.49;43.35
30598;BME280;17365;48.878;8.334;2023-07-13T08:34:27;100267.72;;;24.34;44.07
30598;BME280;17365;48.878;8.334;2023-07-13T08:36:52;100264.84;;;24.04;44.32
30598;BME280;17365;48.878;8.334;2023-07-13T08:39:17;100257.66;;;24.06;44.49
30598;BME280;17365;48.878;8.334;2023-07-13T08:41:44;100257.34;;;24.47;44.15
30598;BME280;17365;48.878;8.334;2023-07-13T08:44:19;100266.00;;;24.33;43.75
30598;BME280;17365;48.878;8.334;2023-07-13T08:46:48;100257.09;;;24.67;39.70
30598;BME280;17365;48.878;8.334;2023-07-13T08:49:15;100263.06;;;24.04;41.02
30598;BME280;17365;48.878;8.334;2023-07-13T08:51:45;100264.59;;;24.26;40.28
30598;BME280;17365;48.878;8.334;2023-07-13T08:54:15;100263.53;;;24.63;40.07
30598;BME280;17365;48.878;8.334;2023-07-13T08:56:43;100262.22;;;24.54;38.98
30598;BME280;17365;48.878;8.334;2023-07-13T08:59:11;100260.91;;;24.28;40.51
30598;BME280;17365;48.878;8.334;2023-07-13T09:04:19;100248.53;;;25.11;39.42
30598;BME280;17365;48.878;8.334;2023-07-13T09:11:49;100259.16;;;25.27;38.33
30598;BME280;17365;48.878;8.334;2023-07-13T09:16:54;100252.19;;;25.24;38.69
30598;BME280;17365;48.878;8.334;2023-07-13T09:19:21;100251.31;;;24.76;38.66
30598;BME280;17365;48.878;8.334;2023-07-13T09:21:48;100255.91;;;25.37;38.48
30598;BME280;17365;48.878;8.334;2023-07-13T09:24:28;100251.97;;;25.29;39.27
30598;BME280;17365;48.878;8.334;2023-07-13T09:26:54;100250.97;;;24.98;38.91
30598;BME280;17365;48.878;8.334;2023-07-13T09:29:26;100255.25;;;25.01;37.12
30598;BME280;17365;48.878;8.334;2023-07-13T09:31:53;100247.13;;;24.88;36.37
30598;BME280;17365;48.878;8.334;2023-07-13T09:34:19;100246.38;;;25.02;36.61
30598;BME280;17365;48.878;8.334;2023-07-13T09:36:44;100245.84;;;25.42;36.10
30598;BME280;17365;48.878;8.334;2023-07-13T09:41:47;100239.88;;;25.85;35.97
30598;BME280;17365;48.878;8.334;2023-07-13T09:44:15;100245.19;;;25.69;35.36
30598;BME280;17365;48.878;8.334;2023-07-13T09:46:44;100250.91;;;25.31;36.78
30598;BME280;17365;48.878;8.334;2023-07-13T09:49:10;100254.34;;;25.02;37.18
30598;BME280;17365;48.878;8.334;2023-07-13T09:51:36;100243.84;;;25.16;36.52
30598;BME280;17365;48.878;8.334;2023-07-13T09:54:02;100249.75;;;25.82;36.15
30598;BME280;17365;48.878;8.334;2023-07-13T09:56:28;100255.94;;;25.51;36.98
30598;BME280;17365;48.878;8.334;2023-07-13T09:58:54;100245.41;;;26.10;36.12
30598;BME280;17365;48.878;8.334;2023-07-13T10:01:33;100249.25;;;26.20;36.35
30598;BME280;17365;48.878;8.334;2023-07-13T10:03:58;100244.28;;;26.14;36.65
30598;BME280;17365;48.878;8.334;2023-07-13T10:06:23;100250.72;;;25.34;35.31
30598;BME280;17365;48.878;8.334;2023-07-13T10:08:51;100252.56;;;25.64;34.55
30598;BME280;17365;48.878;8.334;2023-07-13T10:11:20;100250.72;;;25.50;34.47
30598;BME280;17365;48.878;8.334;2023-07-13T10:16:14;100244.31;;;26.28;34.48
30598;BME280;17365;48.878;8.334;2023-07-13T10:18:47;100251.09;;;26.04;34.21
30598;BME280;17365;48.878;8.334;2023-07-13T10:21:15;100245.34;;;25.81;34.67
30598;BME280;17365;48.878;8.334;2023-07-13T10:23:41;100243.63;;;26.25;34.79
30598;BME280;17365;48.878;8.334;2023-07-13T10:26:15;100241.88;;;25.95;35.09
30598;BME280;17365;48.878;8.334;2023-07-13T10:28:41;100238.81;;;25.87;35.61
30598;BME280;17365;48.878;8.334;2023-07-13T10:31:10;100242.13;;;26.49;34.95
30598;BME280;17365;48.878;8.334;2023-07-13T10:33:37;100236.75;;;26.51;33.98
30598;BME280;17365;48.878;8.334;2023-07-13T10:36:07;100244.38;;;26.12;34.71
30598;BME280;17365;48.878;8.334;2023-07-13T10:38:37;100240.16;;;26.53;34.36
30598;BME280;17365;48.878;8.334;2023-07-13T10:41:06;100236.94;;;26.62;34.56
30598;BME280;17365;48.878;8.334;2023-07-13T10:43:37;100233.84;;;26.82;33.93
30598;BME280;17365;48.878;8.334;2023-07-13T10:46:04;100238.72;;;26.47;34.98
30598;BME280;17365;48.878;8.334;2023-07-13T10:48:31;100235.53;;;27.12;34.10
30598;BME280;17365;48.878;8.334;2023-07-13T10:50:59;100239.34;;;26.93;33.53
30598;BME280;17365;48.878;8.334;2023-07-13T10:53:30;100228.28;;;27.14;33.86
30598;BME280;17365;48.878;8.334;2023-07-13T10:55:58;100223.25;;;26.95;33.48
30598;BME280;17365;48.878;8.334;2023-07-13T10:58:32;100229.31;;;27.25;33.38
30598;BME280;17365;48.878;8.334;2023-07-13T11:01:02;100222.84;;;26.60;34.10
30598;BME280;17365;48.878;8.334;2023-07-13T11:03:28;100233.97;;;26.38;33.71
30598;BME280;17365;48.878;8.334;2023-07-13T11:06:04;100229.44;;;26.54;33.28
30598;BME280;17365;48.878;8.334;2023-07-13T11:08:35;100227.66;;;26.82;34.75
30598;BME280;17365;48.878;8.334;2023-07-13T11:11:02;100220.00;;;26.63;33.81
30598;BME280;17365;48.878;8.334;2023-07-13T11:13:35;100218.00;;;26.38;34.28
30598;BME280;17365;48.878;8.334;2023-07-13T11:16:01;100214.63;;;26.91;33.30
30598;BME280;17365;48.878;8.334;2023-07-13T11:18:36;100222.28;;;26.69;33.81
30598;BME280;17365;48.878;8.334;2023-07-13T11:21:35;100216.72;;;27.01;33.51
30598;BME280;17365;48.878;8.334;2023-07-13T11:24:13;100218.19;;;26.35;33.98
30598;BME280;17365;48.878;8.334;2023-07-13T11:29:24;100216.50;;;26.62;33.59
30598;BME280;17365;48.878;8.334;2023-07-13T11:31:55;100214.78;;;26.76;33.52
30598;BME280;17365;48.878;8.334;2023-07-13T11:36:51;100221.81;;;26.48;34.65
30598;BME280;17365;48.878;8.334;2023-07-13T11:39:18;100215.34;;;26.38;34.34
30598;BME280;17365;48.878;8.334;2023-07-13T11:41:52;100225.88;;;26.82;33.84
30598;BME280;17365;48.878;8.334;2023-07-13T11:44:21;100218.38;;;26.60;33.88
30598;BME280;17365;48.878;8.334;2023-07-13T11:46:51;100230.09;;;25.85;35.49
30598;BME280;17365;48.878;8.334;2023-07-13T11:49:18;100222.97;;;25.86;34.52
30598;BME280;17365;48.878;8.334;2023-07-13T11:51:43;100209.53;;;26.31;33.37
30598;BME280;17365;48.878;8.334;2023-07-13T11:56:47;100220.84;;;26.35;33.52
30598;BME280;17365;48.878;8.334;2023-07-13T11:59:14;100206.06;;;27.01;33.54
30598;BME280;17365;48.878;8.334;2023-07-13T12:01:48;100219.88;;;26.22;34.35
30598;BME280;17365;48.878;8.334;2023-07-13T12:04:22;100218.56;;;26.86;34.45
30598;BME280;17365;48.878;8.334;2023-07-13T12:06:53;100203.63;;;27.24;32.93
30598;BME280;17365;48.878;8.334;2023-07-13T12:09:19;100208.09;;;27.24;32.60
30598;BME280;17365;48.878;8.334;2023-07-13T12:11:50;100207.47;;;27.20;32.09
30598;BME280;17365;48.878;8.334;2023-07-13T12:14:16;100217.06;;;26.67;32.59
30598;BME280;17365;48.878;8.334;2023-07-13T12:16:42;100213.03;;;26.89;32.72
30598;BME280;17365;48.878;8.334;2023-07-13T12:19:14;100210.31;;;27.17;31.79
30598;BME280;17365;48.878;8.334;2023-07-13T12:21:41;100207.63;;;27.17;32.39
30598;BME280;17365;48.878;8.334;2023-07-13T12:24:13;100192.28;;;27.48;32.11
30598;BME280;17365;48.878;8.334;2023-07-13T12:26:39;100192.50;;;27.84;31.19
30598;BME280;17365;48.878;8.334;2023-07-13T12:29:05;100199.13;;;27.52;31.36
30598;BME280;17365;48.878;8.334;2023-07-13T12:31:40;100192.75;;;27.54;31.37
30598;BME280;17365;48.878;8.334;2023-07-13T12:36:32;100195.09;;;27.59;31.31
30598;BME280;17365;48.878;8.334;2023-07-13T12:38:59;100203.03;;;27.73;32.08
30598;BME280;17365;48.878;8.334;2023-07-13T12:41:28;100201.66;;;27.14;32.46
30598;BME280;17365;48.878;8.334;2023-07-13T12:43:53;100202.38;;;26.89;32.40
30598;BME280;17365;48.878;8.334;2023-07-13T12:46:20;100198.47;;;27.75;31.33
30598;BME280;17365;48.878;8.334;2023-07-13T12:48:51;100198.88;;;26.88;31.71
30598;BME280;17365;48.878;8.334;2023-07-13T12:51:17;100196.34;;;27.14;30.88
30598;BME280;17365;48.878;8.334;2023-07-13T12:53:45;100199.41;;;27.35;30.90
30598;BME280;17365;48.878;8.334;2023-07-13T12:56:15;100199.91;;;26.86;31.16
30598;BME280;17365;48.878;8.334;2023-07-13T12:58:42;100209.63;;;27.41;31.56
30598;BME280;17365;48.878;8.334;2023-07-13T13:01:09;100207.41;;;26.93;31.33
30598;BME280;17365;48.878;8.334;2023-07-13T13:03:36;100205.81;;;26.77;31.81
30598;BME280;17365;48.878;8.334;2023-07-13T13:06:03;100211.16;;;26.34;32.36
30598;BME280;17365;48.878;8.334;2023-07-13T13:08:33;100210.50;;;26.73;31.80
30598;BME280;17365;48.878;8.334;2023-07-13T13:10:59;100216.38;;;26.78;31.52
30598;BME280;17365;48.878;8.334;2023-07-13T13:13:24;100211.69;;;27.10;31.72
30598;BME280;17365;48.878;8.334;2023-07-13T13:15:50;100209.03;;;26.96;31.90